Time;durP1;ratioP1;P1;durP2;ratioP2;P2;SDS_P1;SDS_P2;PMS_P1;PMS_P2;Temp;Humidity;BMP_temperature;BMP_pressure;BME280_temperature;BME280_humidity;BME280_pressure;Samples;Min_cycle;Max_cycle;Signal;HPM_P1;HPM_P2
2022/06/05 00:02:26;;;;;;;;;;;14.80;99.90;;;;;;5072908;28;19908;-75
2022/06/05 00:05:10;;;;;;;;;;;14.80;99.90;;;;;;5052303;28;19916;-76
2022/06/05 00:07:38;;;;;;;;;;;14.80;99.90;;;;;;5085629;28;19931;-76
2022/06/05 00:10:09;;;;;;;;;;;14.70;99.90;;;;;;5081524;28;19916;-76
2022/06/05 00:12:39;;;;;;;;;;;14.70;99.90;;;;;;5070830;28;19913;-76
2022/06/05 00:15:05;;;;;;;;;;;14.80;99.90;;;;;;5069701;28;20277;-76
2022/06/05 00:17:31;;;;;;;;;;;14.80;99.90;;;;;;5074678;28;19991;-75
2022/06/05 00:19:56;;;;;;;;;;;14.80;99.90;;;;;;5074003;28;20502;-76
2022/06/05 00:22:22;;;;;;;;;;;14.90;99.90;;;;;;5074784;28;20011;-76
2022/06/05 00:24:48;;;;;;;;;;;14.90;99.90;;;;;;5074306;28;19909;-76
2022/06/05 00:27:18;;;;;;;;;;;14.80;99.90;;;;;;5074937;28;19952;-77
2022/06/05 00:29:49;;;;;;;;;;;14.80;99.90;;;;;;5084726;28;20303;-75
2022/06/05 00:32:23;;;;;;;;;;;14.80;99.90;;;;;;5081168;28;19909;-76
2022/06/05 00:34:49;;;;;;;;;;;14.70;99.90;;;;;;5074495;28;19908;-76
2022/06/05 00:37:43;;;;;;;;;;;14.70;99.90;;;;;;5074937;28;19916;-76
2022/06/05 00:40:12;;;;;;;;;;;14.70;99.90;;;;;;5074974;28;19951;-76
2022/06/05 00:42:37;;;;;;;;;;;14.70;99.90;;;;;;5093831;28;20359;-75
2022/06/05 00:45:07;;;;;;;;;;;14.60;99.90;;;;;;5093496;28;19958;-76
2022/06/05 00:47:33;;;;;;;;;;;14.60;99.90;;;;;;5094118;28;19908;-75
2022/06/05 00:50:01;;;;;;;;;;;14.40;99.90;;;;;;5093257;28;19919;-76
2022/06/05 00:52:31;;;;;;;;;;;14.40;99.90;;;;;;5072076;28;19917;-77
2022/06/05 00:54:57;;;;;;;;;;;14.40;99.90;;;;;;5073732;28;19908;-75
2022/06/05 00:57:26;;;;;;;;;;;14.50;99.90;;;;;;5073134;28;19935;-77
2022/06/05 00:59:52;;;;;;;;;;;14.50;99.90;;;;;;5080014;28;19908;-76
2022/06/05 01:02:17;;;;;;;;;;;14.50;99.90;;;;;;5080865;28;20332;-75
2022/06/05 01:04:46;;;;;;;;;;;14.50;99.90;;;;;;5093119;28;19912;-76
2022/06/05 01:07:12;;;;;;;;;;;14.40;99.90;;;;;;5093842;28;19998;-76
2022/06/05 01:09:40;;;;;;;;;;;14.30;99.90;;;;;;5093508;28;19912;-76
2022/06/05 01:12:08;;;;;;;;;;;14.30;99.90;;;;;;5093505;28;20285;-76
2022/06/05 01:14:34;;;;;;;;;;;14.30;99.90;;;;;;5093233;28;19912;-76
2022/06/05 01:17:16;;;;;;;;;;;14.40;99.90;;;;;;5093716;28;19970;-76
2022/06/05 01:19:48;;;;;;;;;;;14.40;99.90;;;;;;5093949;28;20293;-76
2022/06/05 01:22:34;;;;;;;;;;;14.40;99.90;;;;;;5093221;28;19920;-76
2022/06/05 01:25:08;;;;;;;;;;;14.40;99.90;;;;;;5061096;28;19909;-76
2022/06/05 01:27:37;;;;;;;;;;;14.40;99.90;;;;;;5091649;28;19912;-75
2022/06/05 01:30:11;;;;;;;;;;;14.50;99.90;;;;;;5092524;28;19922;-75
2022/06/05 01:32:40;;;;;;;;;;;14.40;99.90;;;;;;5073605;28;19999;-75
2022/06/05 01:35:17;;;;;;;;;;;14.30;99.90;;;;;;5073346;28;19908;-77
2022/06/05 01:37:48;;;;;;;;;;;14.30;99.90;;;;;;5073902;28;19908;-75
2022/06/05 01:40:18;;;;;;;;;;;14.30;99.90;;;;;;5073417;28;20365;-76
2022/06/05 01:42:47;;;;;;;;;;;14.40;99.90;;;;;;5073276;28;19918;-76
2022/06/05 01:45:31;;;;;;;;;;;14.40;99.90;;;;;;5073251;28;19908;-75
2022/06/05 01:47:58;;;;;;;;;;;14.40;99.90;;;;;;5073747;28;19915;-75
2022/06/05 01:50:23;;;;;;;;;;;14.40;99.90;;;;;;5073582;28;19969;-76
2022/06/05 01:53:07;;;;;;;;;;;14.50;99.90;;;;;;5071768;28;19913;-75
2022/06/05 01:55:36;;;;;;;;;;;14.60;99.90;;;;;;5087768;28;19962;-75
2022/06/05 01:58:04;;;;;;;;;;;14.60;99.90;;;;;;5088939;28;19978;-76
2022/06/05 02:00:29;;;;;;;;;;;14.50;99.90;;;;;;5082904;28;20273;-75
2022/06/05 02:03:17;;;;;;;;;;;14.50;99.90;;;;;;5080413;28;19915;-76
2022/06/05 02:05:45;;;;;;;;;;;14.40;99.90;;;;;;5071998;28;19908;-75
2022/06/05 02:08:17;;;;;;;;;;;14.50;99.90;;;;;;5073314;28;19909;-75
2022/06/05 02:10:47;;;;;;;;;;;14.70;99.90;;;;;;5091361;28;19912;-76
2022/06/05 02:13:12;;;;;;;;;;;14.70;99.90;;;;;;5091534;28;19908;-76
2022/06/05 02:15:38;;;;;;;;;;;14.80;99.90;;;;;;5092424;28;20315;-75
2022/06/05 02:18:05;;;;;;;;;;;14.80;99.90;;;;;;5092531;28;19912;-76
2022/06/05 02:20:31;;;;;;;;;;;14.80;99.90;;;;;;5091189;28;20002;-75
2022/06/05 02:22:56;;;;;;;;;;;14.90;99.90;;;;;;5091776;28;20008;-76
2022/06/05 02:25:24;;;;;;;;;;;15.00;99.90;;;;;;5091412;28;19908;-75
2022/06/05 02:27:50;;;;;;;;;;;15.10;99.90;;;;;;5092787;28;19918;-75
2022/06/05 02:30:17;;;;;;;;;;;15.30;99.90;;;;;;5088630;28;20010;-75
2022/06/05 02:33:14;;;;;;;;;;;15.40;99.90;;;;;;5084266;28;19909;-75
2022/06/05 02:35:46;;;;;;;;;;;15.50;99.90;;;;;;5055419;28;19909;-75
2022/06/05 02:38:30;;;;;;;;;;;15.50;99.90;;;;;;5071321;28;20286;-75
2022/06/05 02:41:02;;;;;;;;;;;15.60;99.90;;;;;;5083358;28;19919;-75
2022/06/05 02:43:37;;;;;;;;;;;15.60;99.90;;;;;;5091159;28;19908;-75
2022/06/05 02:46:11;;;;;;;;;;;15.60;99.90;;;;;;5091911;28;19908;-75
2022/06/05 02:48:41;;;;;;;;;;;15.60;99.90;;;;;;5092429;28;19969;-75
2022/06/05 02:51:13;;;;;;;;;;;15.70;99.90;;;;;;5092150;28;19912;-76
2022/06/05 02:53:50;;;;;;;;;;;15.80;99.90;;;;;;5089754;28;19908;-77
2022/06/05 02:56:15;;;;;;;;;;;15.90;99.90;;;;;;5082826;28;19909;-75
2022/06/05 02:58:41;;;;;;;;;;;15.80;99.90;;;;;;5072280;28;19908;-77
2022/06/05 03:03:51;;;;;;;;;;;15.90;99.90;;;;;;5083410;28;19963;-75
2022/06/05 03:06:16;;;;;;;;;;;15.80;99.90;;;;;;5072322;28;20312;-75
2022/06/05 03:08:42;;;;;;;;;;;15.70;99.90;;;;;;5072326;28;19916;-76
2022/06/05 03:11:07;;;;;;;;;;;15.80;99.90;;;;;;5071990;28;19959;-76
2022/06/05 03:13:33;;;;;;;;;;;15.80;99.90;;;;;;5071306;28;19919;-75
2022/06/05 03:15:59;;;;;;;;;;;15.80;99.90;;;;;;5072022;28;19959;-76
2022/06/05 03:18:24;;;;;;;;;;;15.80;99.90;;;;;;5074305;28;19951;-76
2022/06/05 03:20:54;;;;;;;;;;;15.90;99.90;;;;;;5088846;28;19912;-75
2022/06/05 03:23:19;;;;;;;;;;;16.00;99.90;;;;;;5071472;28;19913;-75
2022/06/05 03:25:45;;;;;;;;;;;16.00;99.90;;;;;;5074558;28;19908;-76
2022/06/05 03:28:10;;;;;;;;;;;16.00;99.90;;;;;;5091491;28;20072;-75
2022/06/05 03:30:37;;;;;;;;;;;16.10;99.90;;;;;;5077827;28;19912;-76
2022/06/05 03:33:03;;;;;;;;;;;16.10;99.90;;;;;;5077470;28;20288;-76
2022/06/05 03:35:28;;;;;;;;;;;16.10;99.90;;;;;;5091067;28;19908;-76
2022/06/05 03:37:54;;;;;;;;;;;15.90;99.90;;;;;;5082782;28;19999;-78
2022/06/05 03:40:19;;;;;;;;;;;16.10;99.90;;;;;;5071662;28;19915;-76
2022/06/05 03:42:45;;;;;;;;;;;16.00;99.90;;;;;;5071603;28;20258;-76
2022/06/05 03:45:14;;;;;;;;;;;16.00;99.90;;;;;;5078678;28;19930;-76
2022/06/05 03:47:40;;;;;;;;;;;16.00;99.90;;;;;;5091278;28;20007;-75
2022/06/05 03:50:06;;;;;;;;;;;16.00;99.90;;;;;;5089304;28;20365;-75
2022/06/05 03:52:32;;;;;;;;;;;16.00;99.90;;;;;;5070978;28;19935;-75
2022/06/05 03:54:57;;;;;;;;;;;16.20;99.90;;;;;;5069599;28;19962;-75
2022/06/05 03:57:23;;;;;;;;;;;16.50;99.90;;;;;;5077652;28;19959;-76
2022/06/05 03:59:48;;;;;;;;;;;16.50;99.90;;;;;;5079113;28;20014;-77
2022/06/05 04:02:14;;;;;;;;;;;16.50;99.90;;;;;;5090818;28;19948;-75
2022/06/05 04:04:39;;;;;;;;;;;16.50;99.90;;;;;;5090826;28;20361;-76
2022/06/05 04:07:05;;;;;;;;;;;16.30;99.90;;;;;;5090881;28;19991;-77
2022/06/05 04:09:30;;;;;;;;;;;16.20;99.90;;;;;;5090772;28;19962;-75
2022/06/05 04:11:56;;;;;;;;;;;16.20;99.90;;;;;;5090577;28;19908;-75
2022/06/05 04:14:21;;;;;;;;;;;16.20;99.90;;;;;;5090134;28;20281;-75
2022/06/05 04:16:47;;;;;;;;;;;16.20;99.90;;;;;;5084263;28;19952;-78
2022/06/05 04:19:13;;;;;;;;;;;16.10;99.90;;;;;;5073124;28;20010;-75
2022/06/05 04:21:40;;;;;;;;;;;16.10;99.90;;;;;;5082106;28;20067;-75
2022/06/05 04:24:05;;;;;;;;;;;16.20;99.90;;;;;;5083523;28;19908;-76
2022/06/05 04:26:33;;;;;;;;;;;16.20;99.90;;;;;;5088804;28;19987;-77
2022/06/05 04:28:59;;;;;;;;;;;16.20;99.90;;;;;;5083397;28;19950;-75
2022/06/05 04:31:35;;;;;;;;;;;16.10;99.90;;;;;;5075489;28;19920;-76
2022/06/05 04:34:02;;;;;;;;;;;16.20;99.90;;;;;;5070728;28;19916;-75
2022/06/05 04:36:28;;;;;;;;;;;16.30;99.90;;;;;;5071284;28;19908;-76
2022/06/05 04:38:54;;;;;;;;;;;16.40;99.90;;;;;;5070134;28;20472;-76
2022/06/05 04:41:20;;;;;;;;;;;16.30;99.90;;;;;;5070474;28;19913;-79
2022/06/05 04:43:46;;;;;;;;;;;16.70;99.90;;;;;;5070680;28;19943;-81
2022/06/05 04:46:12;;;;;;;;;;;16.50;99.90;;;;;;5082516;28;19912;-77
2022/06/05 04:48:37;;;;;;;;;;;16.20;99.90;;;;;;5073180;28;20266;-75
2022/06/05 04:51:06;;;;;;;;;;;16.10;99.90;;;;;;5088241;28;19916;-75
2022/06/05 04:53:32;;;;;;;;;;;16.10;99.90;;;;;;5089093;28;20383;-77
2022/06/05 04:55:58;;;;;;;;;;;16.10;99.90;;;;;;5090168;28;19908;-79
2022/06/05 04:58:23;;;;;;;;;;;16.10;99.90;;;;;;5078159;28;20179;-75
2022/06/05 05:00:49;;;;;;;;;;;16.10;99.90;;;;;;5070508;28;19912;-76
2022/06/05 05:03:14;;;;;;;;;;;16.00;99.90;;;;;;5081390;28;19912;-77
2022/06/05 05:05:40;;;;;;;;;;;15.90;99.90;;;;;;5084723;28;19908;-75
2022/06/05 05:08:06;;;;;;;;;;;15.90;99.90;;;;;;5074503;28;19999;-79
2022/06/05 05:10:32;;;;;;;;;;;15.90;99.90;;;;;;5074585;28;20027;-76
2022/06/05 05:12:58;;;;;;;;;;;15.90;99.90;;;;;;5076757;28;19909;-76
2022/06/05 05:15:23;;;;;;;;;;;15.90;99.90;;;;;;5094690;28;19912;-75
2022/06/05 05:17:49;;;;;;;;;;;15.90;99.90;;;;;;5092626;28;19912;-76
2022/06/05 05:20:14;;;;;;;;;;;15.90;99.90;;;;;;5074518;28;20361;-81
2022/06/05 05:22:40;;;;;;;;;;;15.80;99.90;;;;;;5081054;28;19916;-76
2022/06/05 05:25:07;;;;;;;;;;;15.80;99.90;;;;;;5080537;28;20285;-75
2022/06/05 05:27:33;;;;;;;;;;;15.80;99.90;;;;;;5080708;28;20369;-78
2022/06/05 05:29:58;;;;;;;;;;;15.80;99.90;;;;;;5082091;28;20134;-75
2022/06/05 05:32:24;;;;;;;;;;;15.80;99.90;;;;;;5073813;28;19912;-75
2022/06/05 05:34:49;;;;;;;;;;;15.90;99.90;;;;;;5073211;28;19912;-76
2022/06/05 05:37:15;;;;;;;;;;;15.90;99.90;;;;;;5093412;28;19908;-77
2022/06/05 05:42:24;;;;;;;;;;;15.80;99.90;;;;;;5073644;28;20392;-76
2022/06/05 05:44:53;;;;;;;;;;;15.80;99.90;;;;;;5073345;28;19908;-76
2022/06/05 05:47:20;;;;;;;;;;;15.80;99.90;;;;;;5074015;28;20361;-75
2022/06/05 05:49:46;;;;;;;;;;;15.80;99.90;;;;;;5073685;28;19954;-79
2022/06/05 05:52:11;;;;;;;;;;;15.80;99.90;;;;;;5073343;28;19967;-81
2022/06/05 05:54:37;;;;;;;;;;;15.80;99.90;;;;;;5087860;28;19943;-76
2022/06/05 05:57:03;;;;;;;;;;;15.70;99.90;;;;;;5080566;28;20285;-76
2022/06/05 05:59:29;;;;;;;;;;;15.70;99.90;;;;;;5085312;28;20103;-75
2022/06/05 06:01:54;;;;;;;;;;;15.70;99.90;;;;;;5077379;28;20026;-75
2022/06/05 06:04:20;;;;;;;;;;;15.70;99.90;;;;;;5080235;28;19908;-76
2022/06/05 06:06:48;;;;;;;;;;;15.70;99.90;;;;;;5084911;28;19916;-77
2022/06/05 06:09:14;;;;;;;;;;;15.90;99.90;;;;;;5090371;28;19908;-76
2022/06/05 06:11:40;;;;;;;;;;;15.80;99.90;;;;;;5079427;28;19919;-76
2022/06/05 06:14:06;;;;;;;;;;;15.90;99.90;;;;;;5085196;28;20361;-77
2022/06/05 06:16:31;;;;;;;;;;;16.00;99.90;;;;;;5085036;28;20338;-75
2022/06/05 06:18:56;;;;;;;;;;;16.00;99.90;;;;;;5073408;28;19910;-75
2022/06/05 06:21:22;;;;;;;;;;;16.00;99.90;;;;;;5072944;28;20454;-76
2022/06/05 06:23:48;;;;;;;;;;;15.90;99.90;;;;;;5072941;28;19943;-75
2022/06/05 06:26:13;;;;;;;;;;;15.90;99.90;;;;;;5072881;28;20289;-75
2022/06/05 06:28:39;;;;;;;;;;;15.90;99.90;;;;;;5087982;28;20327;-75
2022/06/05 06:31:05;;;;;;;;;;;15.80;99.90;;;;;;5093824;28;20327;-76
2022/06/05 06:33:31;;;;;;;;;;;15.80;99.90;;;;;;5080060;28;19912;-75
2022/06/05 06:35:59;;;;;;;;;;;15.80;99.90;;;;;;5071483;28;19936;-76
2022/06/05 06:38:25;;;;;;;;;;;15.70;99.90;;;;;;5072770;28;19908;-76
2022/06/05 06:40:56;;;;;;;;;;;15.70;99.90;;;;;;5084010;28;19937;-77
2022/06/05 06:43:22;;;;;;;;;;;15.80;99.90;;;;;;5091360;28;19908;-75
2022/06/05 06:45:47;;;;;;;;;;;15.80;99.90;;;;;;5091135;28;19908;-75
2022/06/05 06:48:13;;;;;;;;;;;15.70;99.90;;;;;;5092058;28;19962;-75
2022/06/05 06:50:38;;;;;;;;;;;15.60;99.90;;;;;;5087438;28;19912;-78
2022/06/05 06:53:04;;;;;;;;;;;15.60;99.90;;;;;;5082900;28;20061;-75
2022/06/05 06:55:32;;;;;;;;;;;15.70;99.90;;;;;;5074681;28;19935;-75
2022/06/05 06:57:58;;;;;;;;;;;15.70;99.90;;;;;;5080932;28;19915;-75
2022/06/05 07:00:23;;;;;;;;;;;15.70;99.90;;;;;;5087367;28;20366;-76
2022/06/05 07:02:49;;;;;;;;;;;15.60;99.90;;;;;;5072483;28;19913;-79
2022/06/05 07:05:14;;;;;;;;;;;15.60;99.90;;;;;;5072168;28;19908;-75
2022/06/05 07:07:40;;;;;;;;;;;15.60;99.90;;;;;;5082374;28;20257;-75
2022/06/05 07:10:06;;;;;;;;;;;15.50;99.90;;;;;;5088521;28;19995;-75
2022/06/05 07:12:33;;;;;;;;;;;15.50;99.90;;;;;;5085461;28;20315;-76
2022/06/05 07:14:58;;;;;;;;;;;15.50;99.90;;;;;;5087434;28;19908;-75
2022/06/05 07:17:24;;;;;;;;;;;15.50;99.90;;;;;;5091536;28;20307;-76
2022/06/05 07:19:49;;;;;;;;;;;15.50;99.90;;;;;;5084917;28;19951;-79
2022/06/05 07:22:15;;;;;;;;;;;15.50;99.90;;;;;;5076159;28;19951;-75
2022/06/05 07:24:40;;;;;;;;;;;15.50;99.90;;;;;;5070038;28;20320;-76
2022/06/05 07:27:06;;;;;;;;;;;15.50;99.90;;;;;;5076924;28;19911;-77
2022/06/05 07:29:31;;;;;;;;;;;15.50;99.90;;;;;;5085876;28;19915;-75
2022/06/05 07:31:56;;;;;;;;;;;15.60;99.90;;;;;;5076266;28;19909;-75
2022/06/05 07:34:22;;;;;;;;;;;15.60;99.90;;;;;;5071072;28;19909;-75
2022/06/05 07:36:47;;;;;;;;;;;15.70;99.90;;;;;;5071941;28;19958;-79
2022/06/05 07:39:13;;;;;;;;;;;15.70;99.90;;;;;;5078365;28;19969;-75
2022/06/05 07:41:39;;;;;;;;;;;15.90;99.90;;;;;;5078015;28;19908;-75
2022/06/05 07:44:05;;;;;;;;;;;16.00;99.90;;;;;;5090730;28;19966;-75
2022/06/05 07:46:31;;;;;;;;;;;16.10;99.90;;;;;;5084722;28;20388;-75
2022/06/05 07:48:57;;;;;;;;;;;16.10;99.90;;;;;;5082957;28;19955;-75
2022/06/05 07:54:26;;;;;;;;;;;16.40;99.90;;;;;;5084889;28;19996;-74
2022/06/05 07:56:53;;;;;;;;;;;16.50;99.90;;;;;;5096459;28;19908;-78
2022/06/05 07:59:18;;;;;;;;;;;16.60;99.90;;;;;;5077676;28;19908;-77
2022/06/05 08:01:44;;;;;;;;;;;16.80;99.90;;;;;;5077012;28;19931;-75
2022/06/05 08:04:10;;;;;;;;;;;17.10;99.90;;;;;;5083702;28;20361;-75
2022/06/05 08:06:36;;;;;;;;;;;17.20;99.90;;;;;;5084763;28;20262;-75
2022/06/05 08:09:03;;;;;;;;;;;17.60;99.90;;;;;;5081018;28;19979;-75
2022/06/05 08:11:28;;;;;;;;;;;17.50;99.90;;;;;;5088786;28;20028;-77
2022/06/05 08:13:54;;;;;;;;;;;17.80;99.90;;;;;;5090112;28;19912;-75
2022/06/05 08:16:19;;;;;;;;;;;17.80;99.90;;;;;;5090967;28;19908;-75
2022/06/05 08:18:45;;;;;;;;;;;18.40;99.90;;;;;;5090781;28;20377;-76
2022/06/05 08:21:11;;;;;;;;;;;18.60;99.90;;;;;;5082443;28;19955;-75
2022/06/05 08:23:37;;;;;;;;;;;18.40;99.90;;;;;;5070265;28;20415;-77
2022/06/05 08:26:02;;;;;;;;;;;18.50;99.90;;;;;;5071136;28;19913;-75
2022/06/05 08:28:28;;;;;;;;;;;18.90;99.90;;;;;;5071193;28;19908;-75
2022/06/05 08:30:53;;;;;;;;;;;19.20;99.90;;;;;;5077840;28;19916;-73
2022/06/05 08:33:19;;;;;;;;;;;19.90;99.90;;;;;;5081820;28;20266;-75
2022/06/05 08:35:46;;;;;;;;;;;21.00;99.90;;;;;;5074622;28;19915;-73
2022/06/05 08:43:59;;;;;;;;;;;21.70;99.90;;;;;;5074741;28;19919;-79
2022/06/05 08:46:26;;;;;;;;;;;22.50;99.90;;;;;;5088592;28;19934;-76
2022/06/05 08:48:57;;;;;;;;;;;23.10;99.90;;;;;;5094324;28;19990;-78
2022/06/05 08:51:36;;;;;;;;;;;21.30;99.90;;;;;;5093628;28;19919;-75
2022/06/05 08:54:17;;;;;;;;;;;21.60;99.90;;;;;;5093669;28;20344;-77
2022/06/05 08:56:50;;;;;;;;;;;21.90;99.90;;;;;;5094271;28;19909;-76
2022/06/05 08:59:16;;;;;;;;;;;22.50;99.90;;;;;;5094247;28;19955;-76
2022/06/05 09:01:47;;;;;;;;;;;22.10;99.90;;;;;;5089259;28;20376;-76
2022/06/05 09:04:12;;;;;;;;;;;22.10;99.90;;;;;;5076013;28;19962;-76
2022/06/05 09:06:40;;;;;;;;;;;22.30;99.90;;;;;;5073395;28;19909;-77
2022/06/05 09:09:12;;;;;;;;;;;22.50;99.90;;;;;;5086546;28;20010;-76
2022/06/05 09:11:41;;;;;;;;;;;21.50;99.90;;;;;;5093520;28;20392;-76
2022/06/05 09:14:25;;;;;;;;;;;20.90;99.90;;;;;;5093226;28;19908;-76
2022/06/05 09:16:53;;;;;;;;;;;21.20;99.90;;;;;;5087655;28;20273;-76
2022/06/05 09:19:23;;;;;;;;;;;21.60;99.90;;;;;;5093882;28;20376;-76
2022/06/05 09:22:03;;;;;;;;;;;22.00;99.90;;;;;;5093191;28;19977;-76
2022/06/05 09:24:43;;;;;;;;;;;21.70;99.90;;;;;;5093199;28;20342;-76
2022/06/05 09:27:09;;;;;;;;;;;21.10;99.90;;;;;;5093634;28;19954;-76
2022/06/05 09:29:42;;;;;;;;;;;21.10;99.90;;;;;;5092308;28;20318;-76
2022/06/05 09:32:21;;;;;;;;;;;21.10;99.90;;;;;;5086732;28;19919;-76
2022/06/05 09:34:52;;;;;;;;;;;21.30;99.90;;;;;;5076704;28;19909;-76
2022/06/05 09:37:28;;;;;;;;;;;22.00;99.90;;;;;;5073878;28;20373;-76
2022/06/05 09:39:56;;;;;;;;;;;23.80;99.90;;;;;;5073753;28;19916;-76
2022/06/05 09:42:30;;;;;;;;;;;24.90;99.90;;;;;;5073511;28;19919;-76
2022/06/05 09:45:02;;;;;;;;;;;24.70;99.90;;;;;;5073381;28;19916;-76
2022/06/05 09:47:35;;;;;;;;;;;24.10;99.90;;;;;;5074099;28;19909;-76
2022/06/05 09:50:03;;;;;;;;;;;25.10;99.90;;;;;;5072378;28;19966;-78
2022/06/05 09:52:30;;;;;;;;;;;26.30;99.90;;;;;;5073190;28;20266;-78
2022/06/05 09:55:03;;;;;;;;;;;27.30;99.90;;;;;;5072356;28;19908;-76
2022/06/05 10:00:27;;;;;;;;;;;26.60;99.90;;;;;;5079376;28;19915;-77
2022/06/05 10:02:56;;;;;;;;;;;25.90;99.90;;;;;;5083270;28;19908;-77
2022/06/05 10:05:27;;;;;;;;;;;24.60;99.90;;;;;;5083382;28;20286;-77
2022/06/05 10:07:58;;;;;;;;;;;24.10;99.90;;;;;;5080679;28;19915;-77
2022/06/05 10:10:32;;;;;;;;;;;23.20;99.90;;;;;;5073061;28;20107;-76
2022/06/05 10:13:02;;;;;;;;;;;22.80;99.90;;;;;;5072692;28;19913;-78
2022/06/05 10:15:31;;;;;;;;;;;22.50;99.90;;;;;;5085005;28;20349;-77
2022/06/05 10:17:58;;;;;;;;;;;22.10;99.90;;;;;;5093358;28;20377;-77
2022/06/05 10:20:32;;;;;;;;;;;21.50;99.90;;;;;;5079511;28;20314;-76
2022/06/05 10:23:08;;;;;;;;;;;21.20;99.90;;;;;;5072416;28;19920;-77
2022/06/05 10:25:43;;;;;;;;;;;20.70;99.90;;;;;;5087809;28;19912;-75
2022/06/05 10:28:15;;;;;;;;;;;20.20;99.90;;;;;;5085031;28;19970;-75
2022/06/05 10:31:01;;;;;;;;;;;19.70;99.90;;;;;;5092828;28;19912;-76
2022/06/05 10:33:39;;;;;;;;;;;19.60;99.90;;;;;;5089500;28;20396;-77
2022/06/05 10:36:04;;;;;;;;;;;19.10;99.90;;;;;;5082339;28;19946;-77
2022/06/05 10:38:53;;;;;;;;;;;18.90;99.90;;;;;;5076618;28;20281;-76
2022/06/05 10:41:18;;;;;;;;;;;18.90;99.90;;;;;;5079588;28;19912;-78
2022/06/05 10:43:48;;;;;;;;;;;18.70;99.90;;;;;;5091406;28;19935;-76
2022/06/05 10:46:21;;;;;;;;;;;18.60;99.90;;;;;;5074987;28;20377;-75
2022/06/05 10:48:49;;;;;;;;;;;18.50;99.90;;;;;;5072621;28;19912;-76
2022/06/05 10:51:21;;;;;;;;;;;18.50;99.90;;;;;;5071847;28;19912;-76
2022/06/05 10:54:05;;;;;;;;;;;18.50;99.90;;;;;;5072228;28;19908;-78
2022/06/05 10:56:30;;;;;;;;;;;18.50;99.90;;;;;;5085265;28;19915;-79
2022/06/05 10:59:05;;;;;;;;;;;18.40;99.90;;;;;;5090392;28;19908;-75
2022/06/05 11:01:49;;;;;;;;;;;18.40;99.90;;;;;;5071422;28;19915;-78
2022/06/05 11:04:24;;;;;;;;;;;18.40;99.90;;;;;;5073025;28;19916;-78
2022/06/05 11:07:13;;;;;;;;;;;18.40;99.90;;;;;;5081499;28;19912;-75
2022/06/05 11:09:51;;;;;;;;;;;18.30;99.90;;;;;;5072186;28;19995;-76
2022/06/05 11:15:24;;;;;;;;;;;18.20;99.90;;;;;;5071880;28;19919;-76
2022/06/05 11:18:08;;;;;;;;;;;18.10;99.90;;;;;;5085063;28;20403;-76
2022/06/05 11:20:34;;;;;;;;;;;18.30;99.90;;;;;;5091120;28;19908;-75
2022/06/05 11:23:02;;;;;;;;;;;18.50;99.90;;;;;;5090894;28;19916;-75
2022/06/05 11:25:30;;;;;;;;;;;19.00;99.90;;;;;;5090702;28;19915;-76
2022/06/05 11:27:59;;;;;;;;;;;19.80;99.90;;;;;;5089905;28;19995;-76
2022/06/05 11:30:32;;;;;;;;;;;21.20;99.90;;;;;;5091119;28;20044;-76
2022/06/05 11:33:16;;;;;;;;;;;21.90;99.90;;;;;;5090740;28;19908;-78
2022/06/05 11:36:08;;;;;;;;;;;23.00;99.90;;;;;;5079584;28;19916;-76
2022/06/05 11:38:34;;;;;;;;;;;23.70;99.90;;;;;;5055319;28;19930;-76
2022/06/05 11:41:17;;;;;;;;;;;24.60;99.90;;;;;;5071637;28;19909;-76
2022/06/05 11:43:43;;;;;;;;;;;23.60;99.90;;;;;;5070943;28;19916;-75
2022/06/05 11:46:09;;;;;;;;;;;23.70;99.90;;;;;;5071661;28;19909;-76
2022/06/05 11:48:57;;;;;;;;;;;24.80;99.90;;;;;;5071528;28;19962;-76
2022/06/05 11:51:26;;;;;;;;;;;24.70;99.90;;;;;;5083797;28;19942;-76
2022/06/05 11:54:06;;;;;;;;;;;25.00;99.90;;;;;;5082886;28;19995;-76
2022/06/05 11:56:31;;;;;;;;;;;24.30;99.90;;;;;;5091065;28;20361;-77
2022/06/05 11:59:08;;;;;;;;;;;22.70;99.90;;;;;;5090773;28;19962;-77
2022/06/05 12:01:36;;;;;;;;;;;22.70;99.90;;;;;;5090350;28;19917;-80
2022/06/05 12:04:25;;;;;;;;;;;22.10;99.90;;;;;;5088617;28;19915;-79
2022/06/05 12:06:54;;;;;;;;;;;21.70;99.90;;;;;;5073308;28;19909;-78
2022/06/05 12:09:22;;;;;;;;;;;21.80;99.90;;;;;;5070403;28;19909;-78
2022/06/05 12:11:53;;;;;;;;;;;21.90;99.90;;;;;;5071680;28;20007;-78
2022/06/05 12:14:22;;;;;;;;;;;21.70;99.90;;;;;;5088184;28;20369;-78
2022/06/05 12:16:54;;;;;;;;;;;21.60;99.90;;;;;;5094940;28;19915;-79
2022/06/05 12:19:26;;;;;;;;;;;21.60;99.90;;;;;;5087771;28;20270;-77
2022/06/05 12:21:59;;;;;;;;;;;21.80;99.90;;;;;;5093903;28;20381;-77
2022/06/05 12:24:27;;;;;;;;;;;21.50;99.90;;;;;;5092180;28;20098;-77
2022/06/05 12:26:54;;;;;;;;;;;21.50;99.90;;;;;;5075378;28;20438;-78
2022/06/05 12:29:24;;;;;;;;;;;21.30;99.90;;;;;;5075421;28;20392;-77
2022/06/05 12:31:56;;;;;;;;;;;22.40;99.90;;;;;;5073466;28;19920;-78
2022/06/05 12:34:25;;;;;;;;;;;23.00;99.90;;;;;;5073271;28;19912;-78
2022/06/05 12:36:54;;;;;;;;;;;25.20;99.90;;;;;;5090080;28;19908;-78
2022/06/05 12:39:33;;;;;;;;;;;27.90;99.90;;;;;;5077694;28;19931;-77
2022/06/05 12:42:14;;;;;;;;;;;28.20;99.90;;;;;;5074619;28;19908;-80
2022/06/05 12:44:42;;;;;;;;;;;28.90;99.20;;;;;;5088084;28;19916;-78
2022/06/05 12:47:11;;;;;;;;;;;27.80;99.90;;;;;;5094519;28;19916;-77
2022/06/05 12:49:52;;;;;;;;;;;26.60;99.90;;;;;;5075618;28;19909;-77
2022/06/05 12:52:39;;;;;;;;;;;25.50;99.90;;;;;;5073248;28;20281;-77
2022/06/05 12:55:18;;;;;;;;;;;25.30;99.90;;;;;;5074023;28;19965;-76
2022/06/05 12:57:46;;;;;;;;;;;25.90;99.90;;;;;;5073690;28;19940;-76
2022/06/05 13:00:14;;;;;;;;;;;25.40;99.90;;;;;;5073479;28;19909;-77
2022/06/05 13:02:51;;;;;;;;;;;25.60;99.90;;;;;;5072893;28;19908;-76
2022/06/05 13:05:21;;;;;;;;;;;25.10;99.90;;;;;;5078885;28;19916;-76
2022/06/05 13:08:01;;;;;;;;;;;24.10;99.90;;;;;;5077403;28;19909;-76
2022/06/05 13:10:26;;;;;;;;;;;23.60;99.90;;;;;;5073278;28;19923;-76
2022/06/05 13:13:01;;;;;;;;;;;24.50;99.90;;;;;;5073615;28;20007;-77
2022/06/05 13:15:28;;;;;;;;;;;24.10;99.90;;;;;;5073777;28;20362;-76
2022/06/05 13:17:57;;;;;;;;;;;24.30;99.90;;;;;;5073105;28;19951;-76
2022/06/05 13:20:28;;;;;;;;;;;24.60;99.90;;;;;;5072694;28;19920;-76
2022/06/05 13:22:57;;;;;;;;;;;24.40;99.90;;;;;;5073368;28;19927;-78
2022/06/05 13:25:28;;;;;;;;;;;24.50;99.90;;;;;;5073853;28;19909;-76
2022/06/05 13:28:00;;;;;;;;;;;24.30;99.90;;;;;;5074122;28;20382;-76
2022/06/05 13:30:27;;;;;;;;;;;24.70;99.90;;;;;;5087025;28;20331;-76
2022/06/05 13:33:04;;;;;;;;;;;24.00;99.90;;;;;;5092984;28;19913;-77
2022/06/05 13:35:44;;;;;;;;;;;23.70;99.90;;;;;;5098459;28;19908;-76
2022/06/05 13:38:24;;;;;;;;;;;22.90;99.90;;;;;;5090546;28;19999;-76
2022/06/05 13:40:56;;;;;;;;;;;23.10;99.90;;;;;;5074004;28;19916;-76
2022/06/05 13:43:25;;;;;;;;;;;22.60;99.90;;;;;;5072714;28;19974;-76
2022/06/05 13:46:17;;;;;;;;;;;22.50;99.90;;;;;;5085785;28;20340;-77
2022/06/05 13:48:42;;;;;;;;;;;22.90;99.90;;;;;;5089990;28;19943;-77
2022/06/05 13:51:11;;;;;;;;;;;23.00;99.90;;;;;;5091307;28;19958;-77
2022/06/05 13:53:40;;;;;;;;;;;23.00;99.90;;;;;;5092331;28;20342;-76
2022/06/05 13:56:18;;;;;;;;;;;22.90;99.90;;;;;;5093014;28;19908;-77
2022/06/05 13:58:59;;;;;;;;;;;22.90;99.90;;;;;;5092983;28;19956;-76
2022/06/05 14:01:29;;;;;;;;;;;23.10;99.90;;;;;;5092736;28;19912;-79
2022/06/05 14:03:57;;;;;;;;;;;22.90;99.90;;;;;;5092249;28;19923;-77
2022/06/05 14:06:36;;;;;;;;;;;22.50;99.90;;;;;;5087564;28;19961;-76
2022/06/05 14:09:03;;;;;;;;;;;22.20;99.90;;;;;;5079323;28;19915;-77
2022/06/05 14:11:37;;;;;;;;;;;21.90;99.90;;;;;;5092343;28;19958;-77
2022/06/05 14:14:05;;;;;;;;;;;21.70;99.90;;;;;;5091922;28;19998;-76
2022/06/05 14:16:36;;;;;;;;;;;21.70;99.90;;;;;;5084397;28;19934;-77
2022/06/05 14:19:23;;;;;;;;;;;21.70;99.90;;;;;;5073257;28;20377;-77
2022/06/05 14:21:53;;;;;;;;;;;21.50;99.90;;;;;;5072325;28;19923;-76
2022/06/05 14:24:22;;;;;;;;;;;21.50;99.90;;;;;;5083259;28;20258;-76
2022/06/05 14:26:50;;;;;;;;;;;21.40;99.90;;;;;;5092519;28;19915;-77
2022/06/05 14:29:20;;;;;;;;;;;21.40;99.90;;;;;;5092346;28;20037;-77
2022/06/05 14:32:05;;;;;;;;;;;21.60;99.90;;;;;;5078803;28;19912;-76
2022/06/05 14:34:41;;;;;;;;;;;21.70;99.90;;;;;;5076511;28;19943;-77
2022/06/05 14:37:25;;;;;;;;;;;21.80;99.90;;;;;;5075861;28;19931;-76
2022/06/05 14:39:51;;;;;;;;;;;21.80;99.90;;;;;;5084725;28;19908;-76
2022/06/05 14:42:19;;;;;;;;;;;21.80;99.90;;;;;;5072133;28;19915;-76
2022/06/05 14:44:48;;;;;;;;;;;21.90;99.90;;;;;;5090362;28;19965;-75
2022/06/05 14:47:25;;;;;;;;;;;21.70;99.90;;;;;;5086930;28;20010;-76
2022/06/05 14:49:53;;;;;;;;;;;21.70;99.90;;;;;;5072649;28;19960;-76
2022/06/05 14:52:31;;;;;;;;;;;21.70;99.90;;;;;;5085128;28;19908;-76